sensor_id;sensor_type;location;lat;lon;timestamp;pressure;altitude;pressure_sealevel;temperature;humidity
10706;BME280;5404;42.656;23.336;2023-11-21T00:01:58;94641.44;;;2.36;78.96
10706;BME280;5404;42.656;23.336;2023-11-21T00:04:24;94650.59;;;2.32;78.44
10706;BME280;5404;42.656;23.336;2023-11-21T00:06:50;94645.25;;;2.35;79.17
10706;BME280;5404;42.656;23.336;2023-11-21T00:09:16;94633.38;;;2.36;78.62
10706;BME280;5404;42.656;23.336;2023-11-21T00:11:43;94643.66;;;2.31;78.94
10706;BME280;5404;42.656;23.336;2023-11-21T00:14:10;94644.44;;;2.31;79.36
10706;BME280;5404;42.656;23.336;2023-11-21T00:16:36;94644.59;;;2.42;78.59
10706;BME280;5404;42.656;23.336;2023-11-21T00:19:01;94639.94;;;2.39;78.95
10706;BME280;5404;42.656;23.336;2023-11-21T00:21:26;94637.63;;;2.38;78.87
10706;BME280;5404;42.656;23.336;2023-11-21T00:23:52;94648.63;;;2.29;78.35
10706;BME280;5404;42.656;23.336;2023-11-21T00:26:17;94643.69;;;2.34;78.59
10706;BME280;5404;42.656;23.336;2023-11-21T00:28:43;94638.50;;;2.45;78.53
10706;BME280;5404;42.656;23.336;2023-11-21T00:31:08;94635.34;;;2.40;78.53
10706;BME280;5404;42.656;23.336;2023-11-21T00:33:34;94635.56;;;2.54;78.43
10706;BME280;5404;42.656;23.336;2023-11-21T00:35:59;94630.53;;;2.52;78.68
10706;BME280;5404;42.656;23.336;2023-11-21T00:38:26;94641.41;;;2.59;78.93
10706;BME280;5404;42.656;23.336;2023-11-21T00:40:53;94633.25;;;2.56;78.78
10706;BME280;5404;42.656;23.336;2023-11-21T00:43:24;94633.44;;;2.66;77.92
10706;BME280;5404;42.656;23.336;2023-11-21T00:45:50;94629.53;;;2.64;77.87
10706;BME280;5404;42.656;23.336;2023-11-21T00:48:16;94614.03;;;2.54;78.13
10706;BME280;5404;42.656;23.336;2023-11-21T00:50:42;94643.53;;;2.47;78.78
10706;BME280;5404;42.656;23.336;2023-11-21T00:53:07;94643.56;;;2.50;78.08
10706;BME280;5404;42.656;23.336;2023-11-21T00:55:34;94633.94;;;2.49;78.42
10706;BME280;5404;42.656;23.336;2023-11-21T00:58:00;94626.19;;;2.44;77.93
10706;BME280;5404;42.656;23.336;2023-11-21T01:00:27;94617.69;;;2.42;78.48
10706;BME280;5404;42.656;23.336;2023-11-21T01:02:53;94628.25;;;2.28;78.29
10706;BME280;5404;42.656;23.336;2023-11-21T01:05:18;94622.09;;;2.27;78.86
10706;BME280;5404;42.656;23.336;2023-11-21T01:07:45;94619.13;;;2.32;78.50
10706;BME280;5404;42.656;23.336;2023-11-21T01:10:10;94634.25;;;2.18;78.80
10706;BME280;5404;42.656;23.336;2023-11-21T01:12:38;94617.34;;;2.17;78.54
10706;BME280;5404;42.656;23.336;2023-11-21T01:15:05;94618.94;;;2.22;78.60
10706;BME280;5404;42.656;23.336;2023-11-21T01:17:34;94612.78;;;2.21;78.27
10706;BME280;5404;42.656;23.336;2023-11-21T01:20:00;94622.75;;;2.21;78.93
10706;BME280;5404;42.656;23.336;2023-11-21T01:22:26;94627.19;;;2.10;78.39
10706;BME280;5404;42.656;23.336;2023-11-21T01:24:54;94634.13;;;2.11;79.12
10706;BME280;5404;42.656;23.336;2023-11-21T01:27:21;94633.25;;;2.03;78.79
10706;BME280;5404;42.656;23.336;2023-11-21T01:29:46;94625.84;;;1.96;79.30
10706;BME280;5404;42.656;23.336;2023-11-21T01:32:12;94625.50;;;1.98;78.61
10706;BME280;5404;42.656;23.336;2023-11-21T01:34:37;94624.28;;;1.95;79.63
10706;BME280;5404;42.656;23.336;2023-11-21T01:37:03;94616.53;;;1.90;79.13
10706;BME280;5404;42.656;23.336;2023-11-21T01:39:30;94613.63;;;1.76;79.79
10706;BME280;5404;42.656;23.336;2023-11-21T01:41:55;94635.22;;;1.83;79.24
10706;BME280;5404;42.656;23.336;2023-11-21T01:44:24;94630.91;;;1.79;79.42
10706;BME280;5404;42.656;23.336;2023-11-21T01:46:50;94630.00;;;1.94;78.98
10706;BME280;5404;42.656;23.336;2023-11-21T01:49:16;94629.47;;;1.85;78.75
10706;BME280;5404;42.656;23.336;2023-11-21T01:51:47;94617.84;;;1.77;79.64
10706;BME280;5404;42.656;23.336;2023-11-21T01:54:14;94608.28;;;1.57;79.35
10706;BME280;5404;42.656;23.336;2023-11-21T01:56:40;94603.97;;;1.52;79.35
10706;BME280;5404;42.656;23.336;2023-11-21T01:59:05;94617.97;;;1.62;79.26
10706;BME280;5404;42.656;23.336;2023-11-21T02:01:33;94624.81;;;1.59;79.31
10706;BME280;5404;42.656;23.336;2023-11-21T02:03:59;94619.75;;;1.54;79.70
10706;BME280;5404;42.656;23.336;2023-11-21T02:06:24;94620.09;;;1.52;79.90
10706;BME280;5404;42.656;23.336;2023-11-21T02:08:51;94620.31;;;1.44;80.17
10706;BME280;5404;42.656;23.336;2023-11-21T02:11:16;94631.59;;;1.53;79.94
10706;BME280;5404;42.656;23.336;2023-11-21T02:13:42;94630.47;;;1.54;80.02
10706;BME280;5404;42.656;23.336;2023-11-21T02:16:09;94624.56;;;1.45;79.86
10706;BME280;5404;42.656;23.336;2023-11-21T02:18:35;94624.97;;;1.47;80.14
10706;BME280;5404;42.656;23.336;2023-11-21T02:21:04;94621.16;;;1.48;80.22
10706;BME280;5404;42.656;23.336;2023-11-21T02:23:29;94619.75;;;1.54;80.13
10706;BME280;5404;42.656;23.336;2023-11-21T02:25:55;94611.69;;;1.54;80.29
10706;BME280;5404;42.656;23.336;2023-11-21T02:28:20;94617.56;;;1.40;80.23
10706;BME280;5404;42.656;23.336;2023-11-21T02:30:51;94607.00;;;1.51;79.57
10706;BME280;5404;42.656;23.336;2023-11-21T02:33:21;94617.88;;;1.58;80.13
10706;BME280;5404;42.656;23.336;2023-11-21T02:35:46;94610.56;;;1.55;79.53
10706;BME280;5404;42.656;23.336;2023-11-21T02:38:12;94611.69;;;1.54;79.77
10706;BME280;5404;42.656;23.336;2023-11-21T02:40:37;94606.31;;;1.54;80.26
10706;BME280;5404;42.656;23.336;2023-11-21T02:43:03;94612.50;;;1.58;80.27
10706;BME280;5404;42.656;23.336;2023-11-21T02:45:31;94608.78;;;1.63;79.63
10706;BME280;5404;42.656;23.336;2023-11-21T02:47:57;94602.56;;;1.58;80.68
10706;BME280;5404;42.656;23.336;2023-11-21T02:50:23;94613.94;;;1.52;80.33
10706;BME280;5404;42.656;23.336;2023-11-21T02:52:48;94602.97;;;1.61;80.21
10706;BME280;5404;42.656;23.336;2023-11-21T02:55:14;94597.53;;;1.57;80.15
10706;BME280;5404;42.656;23.336;2023-11-21T02:57:39;94612.03;;;1.52;80.25
10706;BME280;5404;42.656;23.336;2023-11-21T03:00:05;94610.19;;;1.56;80.28
10706;BME280;5404;42.656;23.336;2023-11-21T03:02:33;94618.00;;;1.65;80.31
10706;BME280;5404;42.656;23.336;2023-11-21T03:04:58;94602.91;;;1.57;79.44
10706;BME280;5404;42.656;23.336;2023-11-21T03:07:24;94597.28;;;1.43;79.88
10706;BME280;5404;42.656;23.336;2023-11-21T03:09:50;94601.53;;;1.44;80.50
10706;BME280;5404;42.656;23.336;2023-11-21T03:12:15;94608.66;;;1.36;80.25
10706;BME280;5404;42.656;23.336;2023-11-21T03:14:41;94610.16;;;1.34;80.05
10706;BME280;5404;42.656;23.336;2023-11-21T03:17:06;94602.91;;;1.34;79.98
10706;BME280;5404;42.656;23.336;2023-11-21T03:19:32;94606.84;;;1.40;79.60
10706;BME280;5404;42.656;23.336;2023-11-21T03:21:57;94608.78;;;1.43;80.04
10706;BME280;5404;42.656;23.336;2023-11-21T03:24:23;94616.44;;;1.22;80.39
10706;BME280;5404;42.656;23.336;2023-11-21T03:26:49;94632.03;;;1.36;81.03
10706;BME280;5404;42.656;23.336;2023-11-21T03:29:14;94630.38;;;1.28;80.89
10706;BME280;5404;42.656;23.336;2023-11-21T03:31:40;94630.16;;;1.17;80.74
10706;BME280;5404;42.656;23.336;2023-11-21T03:34:06;94622.47;;;1.15;81.24
10706;BME280;5404;42.656;23.336;2023-11-21T03:36:31;94637.00;;;1.14;80.85
10706;BME280;5404;42.656;23.336;2023-11-21T03:38:57;94623.72;;;1.22;81.41
10706;BME280;5404;42.656;23.336;2023-11-21T03:41:22;94614.53;;;1.23;81.38
10706;BME280;5404;42.656;23.336;2023-11-21T03:43:47;94627.31;;;1.29;80.82
10706;BME280;5404;42.656;23.336;2023-11-21T03:46:13;94614.34;;;1.31;81.21
10706;BME280;5404;42.656;23.336;2023-11-21T03:48:39;94609.03;;;1.35;80.52
10706;BME280;5404;42.656;23.336;2023-11-21T03:51:04;94609.75;;;1.32;80.48
10706;BME280;5404;42.656;23.336;2023-11-21T03:53:30;94607.50;;;1.34;80.60
10706;BME280;5404;42.656;23.336;2023-11-21T03:55:55;94587.97;;;1.37;80.92
10706;BME280;5404;42.656;23.336;2023-11-21T03:58:21;94592.94;;;1.35;81.23
10706;BME280;5404;42.656;23.336;2023-11-21T04:00:47;94578.38;;;1.36;81.26
10706;BME280;5404;42.656;23.336;2023-11-21T04:03:14;94601.28;;;1.52;81.20
10706;BME280;5404;42.656;23.336;2023-11-21T04:05:40;94589.66;;;1.45;81.06
10706;BME280;5404;42.656;23.336;2023-11-21T04:08:06;94592.13;;;1.53;80.50
10706;BME280;5404;42.656;23.336;2023-11-21T04:10:32;94584.84;;;1.54;80.39
10706;BME280;5404;42.656;23.336;2023-11-21T04:12:57;94573.25;;;1.50;80.22
10706;BME280;5404;42.656;23.336;2023-11-21T04:15:23;94580.78;;;1.41;81.12
10706;BME280;5404;42.656;23.336;2023-11-21T04:17:49;94589.66;;;1.45;80.34
10706;BME280;5404;42.656;23.336;2023-11-21T04:20:14;94572.41;;;1.46;80.44
10706;BME280;5404;42.656;23.336;2023-11-21T04:22:40;94588.53;;;1.46;80.18
10706;BME280;5404;42.656;23.336;2023-11-21T04:25:08;94573.25;;;1.50;80.50
10706;BME280;5404;42.656;23.336;2023-11-21T04:27:34;94585.41;;;1.44;79.78
10706;BME280;5404;42.656;23.336;2023-11-21T04:30:00;94581.94;;;1.43;80.58
10706;BME280;5404;42.656;23.336;2023-11-21T04:32:25;94577.84;;;1.27;79.97
10706;BME280;5404;42.656;23.336;2023-11-21T04:34:50;94592.94;;;1.35;80.50
10706;BME280;5404;42.656;23.336;2023-11-21T04:37:16;94593.91;;;1.46;81.04
10706;BME280;5404;42.656;23.336;2023-11-21T04:39:41;94583.47;;;1.41;80.41
10706;BME280;5404;42.656;23.336;2023-11-21T04:42:07;94583.47;;;1.41;79.90
10706;BME280;5404;42.656;23.336;2023-11-21T04:44:32;94588.03;;;1.40;80.45
10706;BME280;5404;42.656;23.336;2023-11-21T04:46:57;94585.38;;;1.40;80.47
10706;BME280;5404;42.656;23.336;2023-11-21T04:49:23;94592.34;;;1.45;79.92
10706;BME280;5404;42.656;23.336;2023-11-21T04:51:48;94593.78;;;1.39;80.41
10706;BME280;5404;42.656;23.336;2023-11-21T04:54:14;94596.88;;;1.41;79.97
10706;BME280;5404;42.656;23.336;2023-11-21T04:56:39;94596.66;;;1.30;80.39
10706;BME280;5404;42.656;23.336;2023-11-21T04:59:04;94599.47;;;1.37;80.55
10706;BME280;5404;42.656;23.336;2023-11-21T05:01:30;94599.66;;;1.25;80.52
10706;BME280;5404;42.656;23.336;2023-11-21T05:03:55;94587.91;;;1.33;80.39
10706;BME280;5404;42.656;23.336;2023-11-21T05:06:22;94599.56;;;1.41;79.82
10706;BME280;5404;42.656;23.336;2023-11-21T05:08:49;94614.50;;;1.19;80.39
10706;BME280;5404;42.656;23.336;2023-11-21T05:11:26;94615.81;;;1.29;80.53
10706;BME280;5404;42.656;23.336;2023-11-21T05:13:52;94587.41;;;1.47;80.55
10706;BME280;5404;42.656;23.336;2023-11-21T05:16:19;94584.38;;;1.48;80.60
10706;BME280;5404;42.656;23.336;2023-11-21T05:18:44;94588.41;;;1.39;80.56
10706;BME280;5404;42.656;23.336;2023-11-21T05:21:10;94588.78;;;1.60;80.79
10706;BME280;5404;42.656;23.336;2023-11-21T05:23:35;94581.63;;;1.68;80.53
10706;BME280;5404;42.656;23.336;2023-11-21T05:26:02;94582.81;;;1.70;80.35
10706;BME280;5404;42.656;23.336;2023-11-21T05:28:28;94585.13;;;1.72;79.93
10706;BME280;5404;42.656;23.336;2023-11-21T05:30:53;94595.94;;;1.75;79.75
10706;BME280;5404;42.656;23.336;2023-11-21T05:33:20;94598.28;;;1.77;80.58
10706;BME280;5404;42.656;23.336;2023-11-21T05:35:46;94599.63;;;1.90;79.86
10706;BME280;5404;42.656;23.336;2023-11-21T05:38:14;94607.38;;;1.95;79.74
10706;BME280;5404;42.656;23.336;2023-11-21T05:40:40;94599.31;;;1.95;79.30
10706;BME280;5404;42.656;23.336;2023-11-21T05:43:06;94601.91;;;1.88;79.42
10706;BME280;5404;42.656;23.336;2023-11-21T05:45:32;94604.59;;;1.88;79.44
10706;BME280;5404;42.656;23.336;2023-11-21T05:47:58;94613.13;;;1.93;79.64
10706;BME280;5404;42.656;23.336;2023-11-21T05:50:24;94588.16;;;1.93;79.30
10706;BME280;5404;42.656;23.336;2023-11-21T05:52:49;94600.22;;;2.03;78.75
10706;BME280;5404;42.656;23.336;2023-11-21T05:55:15;94595.09;;;1.71;79.41
10706;BME280;5404;42.656;23.336;2023-11-21T05:57:42;94598.41;;;1.84;79.22
10706;BME280;5404;42.656;23.336;2023-11-21T06:00:10;94602.38;;;1.93;79.75
10706;BME280;5404;42.656;23.336;2023-11-21T06:02:38;94599.00;;;2.00;79.41
10706;BME280;5404;42.656;23.336;2023-11-21T06:05:06;94593.81;;;2.11;79.47
10706;BME280;5404;42.656;23.336;2023-11-21T06:07:31;94597.03;;;2.20;79.03
10706;BME280;5404;42.656;23.336;2023-11-21T06:09:57;94592.78;;;2.19;79.45
10706;BME280;5404;42.656;23.336;2023-11-21T06:12:22;94594.03;;;1.99;79.72
10706;BME280;5404;42.656;23.336;2023-11-21T06:14:48;94598.06;;;2.12;79.62
10706;BME280;5404;42.656;23.336;2023-11-21T06:17:13;94605.09;;;2.20;79.45
10706;BME280;5404;42.656;23.336;2023-11-21T06:19:39;94614.09;;;2.31;79.18
10706;BME280;5404;42.656;23.336;2023-11-21T06:22:05;94605.66;;;2.32;78.57
10706;BME280;5404;42.656;23.336;2023-11-21T06:24:31;94603.66;;;2.52;78.59
10706;BME280;5404;42.656;23.336;2023-11-21T06:26:56;94607.22;;;2.60;77.49
10706;BME280;5404;42.656;23.336;2023-11-21T06:29:22;94614.28;;;2.71;76.95
10706;BME280;5404;42.656;23.336;2023-11-21T06:31:47;94620.41;;;2.68;77.52
10706;BME280;5404;42.656;23.336;2023-11-21T06:34:13;94619.63;;;2.68;77.97
10706;BME280;5404;42.656;23.336;2023-11-21T06:36:39;94621.34;;;2.53;77.47
10706;BME280;5404;42.656;23.336;2023-11-21T06:39:04;94620.78;;;2.70;77.55
10706;BME280;5404;42.656;23.336;2023-11-21T06:41:34;94617.63;;;2.61;76.84
10706;BME280;5404;42.656;23.336;2023-11-21T06:43:59;94633.72;;;2.88;77.95
10706;BME280;5404;42.656;23.336;2023-11-21T06:46:25;94619.22;;;2.96;76.95
10706;BME280;5404;42.656;23.336;2023-11-21T06:48:50;94629.50;;;3.20;77.28
10706;BME280;5404;42.656;23.336;2023-11-21T06:51:16;94620.53;;;3.09;75.56
10706;BME280;5404;42.656;23.336;2023-11-21T06:53:42;94635.38;;;3.29;76.48
10706;BME280;5404;42.656;23.336;2023-11-21T06:56:19;94626.31;;;3.44;75.74
10706;BME280;5404;42.656;23.336;2023-11-21T06:58:45;94631.44;;;3.53;75.32
10706;BME280;5404;42.656;23.336;2023-11-21T07:01:14;94634.47;;;3.51;75.59
10706;BME280;5404;42.656;23.336;2023-11-21T07:03:40;94633.97;;;3.76;75.42
10706;BME280;5404;42.656;23.336;2023-11-21T07:06:06;94639.28;;;3.69;74.57
10706;BME280;5404;42.656;23.336;2023-11-21T07:08:33;94627.09;;;3.82;74.13
10706;BME280;5404;42.656;23.336;2023-11-21T07:10:58;94626.81;;;3.90;73.85
10706;BME280;5404;42.656;23.336;2023-11-21T07:13:23;94622.63;;;4.00;73.12
10706;BME280;5404;42.656;23.336;2023-11-21T07:15:49;94618.97;;;4.22;72.90
10706;BME280;5404;42.656;23.336;2023-11-21T07:18:15;94600.56;;;4.31;73.15
10706;BME280;5404;42.656;23.336;2023-11-21T07:20:40;94620.06;;;4.65;72.23
10706;BME280;5404;42.656;23.336;2023-11-21T07:23:05;94621.56;;;4.63;71.58
10706;BME280;5404;42.656;23.336;2023-11-21T07:25:32;94624.75;;;4.79;72.24
10706;BME280;5404;42.656;23.336;2023-11-21T07:27:59;94618.72;;;5.03;71.68
10706;BME280;5404;42.656;23.336;2023-11-21T07:30:25;94623.41;;;5.21;71.10
10706;BME280;5404;42.656;23.336;2023-11-21T07:32:51;94609.53;;;5.22;69.70
10706;BME280;5404;42.656;23.336;2023-11-21T07:35:16;94616.50;;;5.27;70.20
10706;BME280;5404;42.656;23.336;2023-11-21T07:37:42;94612.66;;;5.24;69.58
10706;BME280;5404;42.656;23.336;2023-11-21T07:40:08;94615.75;;;5.30;68.48
10706;BME280;5404;42.656;23.336;2023-11-21T07:42:34;94613.41;;;5.18;69.56
10706;BME280;5404;42.656;23.336;2023-11-21T07:45:00;94616.09;;;5.18;70.11
10706;BME280;5404;42.656;23.336;2023-11-21T07:47:25;94624.19;;;5.18;69.18
10706;BME280;5404;42.656;23.336;2023-11-21T07:49:53;94620.38;;;5.26;69.38
10706;BME280;5404;42.656;23.336;2023-11-21T07:52:21;94616.81;;;5.07;70.04
10706;BME280;5404;42.656;23.336;2023-11-21T07:54:46;94610.78;;;5.46;69.82
10706;BME280;5404;42.656;23.336;2023-11-21T07:57:12;94617.03;;;5.71;68.72
10706;BME280;5404;42.656;23.336;2023-11-21T07:59:40;94605.84;;;5.83;68.47
10706;BME280;5404;42.656;23.336;2023-11-21T08:02:08;94594.72;;;5.96;67.88
10706;BME280;5404;42.656;23.336;2023-11-21T08:04:34;94606.69;;;5.95;67.09
10706;BME280;5404;42.656;23.336;2023-11-21T08:07:01;94602.00;;;5.81;67.40
10706;BME280;5404;42.656;23.336;2023-11-21T08:09:27;94579.63;;;5.87;67.43
10706;BME280;5404;42.656;23.336;2023-11-21T08:11:52;94597.34;;;5.74;68.20
10706;BME280;5404;42.656;23.336;2023-11-21T08:14:18;94593.53;;;5.89;67.32
10706;BME280;5404;42.656;23.336;2023-11-21T08:16:44;94592.00;;;6.03;66.98
10706;BME280;5404;42.656;23.336;2023-11-21T08:19:10;94583.88;;;6.27;67.81
10706;BME280;5404;42.656;23.336;2023-11-21T08:21:36;94598.56;;;6.51;66.12
10706;BME280;5404;42.656;23.336;2023-11-21T08:24:05;94598.19;;;6.39;66.17
10706;BME280;5404;42.656;23.336;2023-11-21T08:26:30;94580.00;;;6.67;65.48
10706;BME280;5404;42.656;23.336;2023-11-21T08:28:56;94584.16;;;6.90;65.44
10706;BME280;5404;42.656;23.336;2023-11-21T08:31:28;94581.81;;;7.10;64.39
10706;BME280;5404;42.656;23.336;2023-11-21T08:33:55;94588.81;;;6.89;63.47
10706;BME280;5404;42.656;23.336;2023-11-21T08:36:21;94594.25;;;6.82;64.07
10706;BME280;5404;42.656;23.336;2023-11-21T08:38:49;94581.78;;;7.13;63.28
10706;BME280;5404;42.656;23.336;2023-11-21T08:41:15;94577.06;;;7.28;63.67
10706;BME280;5404;42.656;23.336;2023-11-21T08:43:41;94592.56;;;7.27;63.32
10706;BME280;5404;42.656;23.336;2023-11-21T08:46:07;94571.59;;;7.45;62.93
10706;BME280;5404;42.656;23.336;2023-11-21T08:48:35;94580.84;;;7.48;63.26
10706;BME280;5404;42.656;23.336;2023-11-21T08:51:01;94584.09;;;7.11;63.49
10706;BME280;5404;42.656;23.336;2023-11-21T08:53:26;94567.69;;;7.46;63.32
10706;BME280;5404;42.656;23.336;2023-11-21T08:55:52;94574.50;;;7.79;62.65
10706;BME280;5404;42.656;23.336;2023-11-21T08:58:19;94573.47;;;8.11;61.25
10706;BME280;5404;42.656;23.336;2023-11-21T09:00:44;94559.47;;;8.19;60.06
10706;BME280;5404;42.656;23.336;2023-11-21T09:03:12;94559.72;;;7.84;61.78
10706;BME280;5404;42.656;23.336;2023-11-21T09:05:38;94547.66;;;7.92;61.33
10706;BME280;5404;42.656;23.336;2023-11-21T09:08:05;94525.06;;;8.09;60.21
10706;BME280;5404;42.656;23.336;2023-11-21T09:10:31;94532.38;;;8.12;60.26
10706;BME280;5404;42.656;23.336;2023-11-21T09:12:57;94524.56;;;8.18;59.59
10706;BME280;5404;42.656;23.336;2023-11-21T09:15:24;94499.09;;;8.08;60.16
10706;BME280;5404;42.656;23.336;2023-11-21T09:17:50;94512.53;;;8.22;60.50
10706;BME280;5404;42.656;23.336;2023-11-21T09:20:15;94503.81;;;7.97;60.35
10706;BME280;5404;42.656;23.336;2023-11-21T09:22:41;94515.38;;;8.05;59.58
10706;BME280;5404;42.656;23.336;2023-11-21T09:25:07;94506.03;;;8.13;60.71
10706;BME280;5404;42.656;23.336;2023-11-21T09:27:34;94490.63;;;7.99;60.65
10706;BME280;5404;42.656;23.336;2023-11-21T09:30:01;94480.22;;;7.91;60.03
10706;BME280;5404;42.656;23.336;2023-11-21T09:32:27;94473.69;;;8.33;60.47
10706;BME280;5404;42.656;23.336;2023-11-21T09:34:52;94471.41;;;8.65;59.86
10706;BME280;5404;42.656;23.336;2023-11-21T09:37:20;94466.19;;;9.12;57.95
10706;BME280;5404;42.656;23.336;2023-11-21T09:39:46;94452.69;;;9.85;55.11
10706;BME280;5404;42.656;23.336;2023-11-21T09:42:21;94444.56;;;10.51;53.67
10706;BME280;5404;42.656;23.336;2023-11-21T09:44:54;94441.91;;;11.07;52.37
10706;BME280;5404;42.656;23.336;2023-11-21T09:47:24;94437.81;;;11.67;51.44
10706;BME280;5404;42.656;23.336;2023-11-21T09:49:49;94439.09;;;12.44;50.25
10706;BME280;5404;42.656;23.336;2023-11-21T09:52:23;94424.53;;;12.34;49.81
10706;BME280;5404;42.656;23.336;2023-11-21T09:54:52;94402.91;;;13.23;47.94
10706;BME280;5404;42.656;23.336;2023-11-21T09:57:20;94392.22;;;13.41;47.13
10706;BME280;5404;42.656;23.336;2023-11-21T09:59:46;94402.06;;;13.26;46.93
10706;BME280;5404;42.656;23.336;2023-11-21T10:02:16;94391.97;;;13.23;46.40
10706;BME280;5404;42.656;23.336;2023-11-21T10:04:46;94393.09;;;13.63;45.97
10706;BME280;5404;42.656;23.336;2023-11-21T10:07:13;94382.16;;;14.10;44.88
10706;BME280;5404;42.656;23.336;2023-11-21T10:09:42;94379.09;;;14.77;44.43
10706;BME280;5404;42.656;23.336;2023-11-21T10:12:09;94372.28;;;15.75;42.37
10706;BME280;5404;42.656;23.336;2023-11-21T10:14:37;94378.66;;;16.48;40.26
10706;BME280;5404;42.656;23.336;2023-11-21T10:17:07;94372.25;;;16.88;39.34
10706;BME280;5404;42.656;23.336;2023-11-21T10:19:35;94368.59;;;15.69;40.82
10706;BME280;5404;42.656;23.336;2023-11-21T10:22:01;94355.28;;;15.58;41.13
10706;BME280;5404;42.656;23.336;2023-11-21T10:24:27;94356.25;;;15.42;40.78
10706;BME280;5404;42.656;23.336;2023-11-21T10:26:52;94353.81;;;15.13;41.40
10706;BME280;5404;42.656;23.336;2023-11-21T10:29:19;94360.34;;;14.76;42.19
10706;BME280;5404;42.656;23.336;2023-11-21T10:31:49;94355.47;;;14.80;42.20
10706;BME280;5404;42.656;23.336;2023-11-21T10:34:19;94353.56;;;14.68;43.04
10706;BME280;5404;42.656;23.336;2023-11-21T10:36:45;94349.94;;;14.36;42.58
10706;BME280;5404;42.656;23.336;2023-11-21T10:39:16;94353.00;;;13.69;43.47
10706;BME280;5404;42.656;23.336;2023-11-21T10:41:45;94346.38;;;12.37;47.13
10706;BME280;5404;42.656;23.336;2023-11-21T10:44:14;94349.00;;;12.69;46.52
10706;BME280;5404;42.656;23.336;2023-11-21T10:46:45;94355.41;;;12.50;46.80
10706;BME280;5404;42.656;23.336;2023-11-21T10:49:16;94338.66;;;12.19;47.68
10706;BME280;5404;42.656;23.336;2023-11-21T10:51:43;94348.84;;;12.02;47.94
10706;BME280;5404;42.656;23.336;2023-11-21T10:54:09;94343.16;;;11.97;47.77
10706;BME280;5404;42.656;23.336;2023-11-21T10:56:35;94337.72;;;11.81;48.78
10706;BME280;5404;42.656;23.336;2023-11-21T10:59:07;94326.38;;;11.50;49.14
10706;BME280;5404;42.656;23.336;2023-11-21T11:01:34;94329.19;;;11.14;49.64
10706;BME280;5404;42.656;23.336;2023-11-21T11:04:02;94326.53;;;10.94;50.62
10706;BME280;5404;42.656;23.336;2023-11-21T11:06:31;94324.78;;;10.48;51.42
10706;BME280;5404;42.656;23.336;2023-11-21T11:08:59;94326.69;;;10.67;52.17
10706;BME280;5404;42.656;23.336;2023-11-21T11:11:28;94323.03;;;10.57;52.57
10706;BME280;5404;42.656;23.336;2023-11-21T11:13:55;94327.09;;;10.49;52.54
10706;BME280;5404;42.656;23.336;2023-11-21T11:16:22;94331.19;;;10.57;52.53
10706;BME280;5404;42.656;23.336;2023-11-21T11:18:49;94315.28;;;10.56;51.98
10706;BME280;5404;42.656;23.336;2023-11-21T11:27:34;94283.09;;;10.31;52.97
10706;BME280;5404;42.656;23.336;2023-11-21T11:30:50;94285.81;;;10.51;52.56
10706;BME280;5404;42.656;23.336;2023-11-21T11:33:30;94280.22;;;10.58;52.39
10706;BME280;5404;42.656;23.336;2023-11-21T11:36:24;94280.13;;;10.62;52.34
10706;BME280;5404;42.656;23.336;2023-11-21T11:38:51;94276.88;;;10.67;52.99
10706;BME280;5404;42.656;23.336;2023-11-21T11:41:25;94273.22;;;10.57;52.06
10706;BME280;5404;42.656;23.336;2023-11-21T11:43:52;94266.59;;;10.38;52.21
10706;BME280;5404;42.656;23.336;2023-11-21T11:46:18;94275.94;;;9.98;53.24
10706;BME280;5404;42.656;23.336;2023-11-21T11:48:46;94287.78;;;9.68;54.80
10706;BME280;5404;42.656;23.336;2023-11-21T11:51:14;94294.59;;;9.56;55.90
10706;BME280;5404;42.656;23.336;2023-11-21T11:53:44;94300.09;;;9.53;56.65
10706;BME280;5404;42.656;23.336;2023-11-21T11:56:33;94295.66;;;9.39;56.93
10706;BME280;5404;42.656;23.336;2023-11-21T11:59:04;94295.84;;;9.28;58.97
10706;BME280;5404;42.656;23.336;2023-11-21T12:01:31;94279.38;;;9.16;58.28
10706;BME280;5404;42.656;23.336;2023-11-21T12:06:45;94283.56;;;8.70;59.73
10706;BME280;5404;42.656;23.336;2023-11-21T12:09:21;94289.19;;;8.56;61.05
10706;BME280;5404;42.656;23.336;2023-11-21T12:11:48;94287.19;;;8.30;62.67
10706;BME280;5404;42.656;23.336;2023-11-21T12:14:14;94303.47;;;8.30;63.48
10706;BME280;5404;42.656;23.336;2023-11-21T12:16:41;94305.53;;;8.18;65.41
10706;BME280;5404;42.656;23.336;2023-11-21T12:19:08;94308.28;;;8.15;65.18
10706;BME280;5404;42.656;23.336;2023-11-21T12:21:34;94303.81;;;8.01;65.77
10706;BME280;5404;42.656;23.336;2023-11-21T12:24:01;94304.31;;;7.89;66.78
10706;BME280;5404;42.656;23.336;2023-11-21T12:26:26;94290.72;;;7.93;66.99
10706;BME280;5404;42.656;23.336;2023-11-21T12:28:53;94285.22;;;8.00;67.14
10706;BME280;5404;42.656;23.336;2023-11-21T12:31:26;94293.06;;;7.91;66.73
10706;BME280;5404;42.656;23.336;2023-11-21T12:33:51;94294.81;;;7.74;67.23
10706;BME280;5404;42.656;23.336;2023-11-21T12:36:17;94297.69;;;7.60;68.42
10706;BME280;5404;42.656;23.336;2023-11-21T12:38:42;94305.88;;;7.53;69.14
10706;BME280;5404;42.656;23.336;2023-11-21T12:41:09;94307.75;;;7.59;69.81
10706;BME280;5404;42.656;23.336;2023-11-21T12:43:37;94294.22;;;7.56;69.22
10706;BME280;5404;42.656;23.336;2023-11-21T12:46:08;94285.56;;;7.68;68.64
10706;BME280;5404;42.656;23.336;2023-11-21T12:48:37;94283.28;;;7.63;68.23
10706;BME280;5404;42.656;23.336;2023-11-21T12:51:05;94285.53;;;7.71;67.52
10706;BME280;5404;42.656;23.336;2023-11-21T12:53:32;94271.69;;;7.62;67.99
10706;BME280;5404;42.656;23.336;2023-11-21T12:56:06;94265.47;;;7.62;66.61
10706;BME280;5404;42.656;23.336;2023-11-21T12:58:34;94264.75;;;7.58;67.62
10706;BME280;5404;42.656;23.336;2023-11-21T13:01:01;94271.66;;;7.66;68.87
10706;BME280;5404;42.656;23.336;2023-11-21T13:03:29;94261.53;;;7.70;69.04
10706;BME280;5404;42.656;23.336;2023-11-21T13:05:55;94249.13;;;7.69;68.03
10706;BME280;5404;42.656;23.336;2023-11-21T13:08:23;94254.47;;;7.76;67.34
10706;BME280;5404;42.656;23.336;2023-11-21T13:10:54;94252.16;;;7.78;66.92
10706;BME280;5404;42.656;23.336;2023-11-21T13:13:20;94258.63;;;7.88;67.02
10706;BME280;5404;42.656;23.336;2023-11-21T13:15:53;94255.00;;;7.98;67.56
10706;BME280;5404;42.656;23.336;2023-11-21T13:18:22;94254.13;;;8.08;68.79